Time;durP1;ratioP1;P1;durP2;ratioP2;P2;SDS_P1;SDS_P2;PMS_P1;PMS_P2;Temp;Humidity;BMP_temperature;BMP_pressure;BME280_temperature;BME280_humidity;BME280_pressure;Samples;Min_cycle;Max_cycle;Signal;HPM_P1;HPM_P2
2023/05/10 00:00:22;;;;;;;;;;;;;;;16.47;47.92;101422.66;5075910;28;1043;-58
2023/05/10 00:02:47;;;;;;;;;;;;;;;16.79;48.56;101418.31;5079355;28;1030;-58
2023/05/10 00:05:13;;;;;;;;;;;;;;;16.59;47.63;101417.88;5079792;28;1054;-58
2023/05/10 00:07:39;;;;;;;;;;;;;;;16.73;47.96;101418.28;5079656;28;1123;-59
2023/05/10 00:10:04;;;;;;;;;;;;;;;16.86;48.27;101417.03;5078329;28;1914;-58
2023/05/10 00:12:30;;;;;;;;;;;;;;;16.43;47.83;101416.84;5079986;28;1189;-59
2023/05/10 00:14:56;;;;;;;;;;;;;;;16.35;46.98;101417.28;5079193;28;1006;-59
2023/05/10 00:17:21;;;;;;;;;;;;;;;17.34;47.41;101414.44;5079978;28;1019;-59
2023/05/10 00:19:47;;;;;;;;;;;;;;;16.73;47.86;101417.44;5079106;28;1086;-59
2023/05/10 00:22:12;;;;;;;;;;;;;;;16.32;47.42;101412.31;5073552;28;905;-59
2023/05/10 00:24:38;;;;;;;;;;;;;;;16.72;47.75;101416.63;5074581;28;1075;-59
2023/05/10 00:27:03;;;;;;;;;;;;;;;16.80;47.62;101417.25;5078853;28;1002;-59
2023/05/10 00:29:29;;;;;;;;;;;;;;;16.47;47.20;101419.09;5079127;28;1914;-59
2023/05/10 00:31:55;;;;;;;;;;;;;;;16.79;47.46;101421.06;5078829;28;1054;-59
2023/05/10 00:34:20;;;;;;;;;;;;;;;17.02;47.68;101409.78;5089370;28;1098;-59
2023/05/10 00:36:46;;;;;;;;;;;;;;;16.48;47.60;101412.50;5079154;28;1055;-59
2023/05/10 00:39:12;;;;;;;;;;;;;;;17.24;47.61;101406.13;5078834;28;1015;-59
2023/05/10 00:41:37;;;;;;;;;;;;;;;16.65;47.98;101413.25;5061172;28;1319;-59
2023/05/10 00:44:05;;;;;;;;;;;;;;;16.43;47.02;101413.28;5060743;28;1296;-59
2023/05/10 00:46:31;;;;;;;;;;;;;;;16.37;47.13;101409.66;5065126;28;1659;-60
2023/05/10 00:48:57;;;;;;;;;;;;;;;16.87;47.56;101406.88;5060964;28;1315;-60
2023/05/10 00:51:23;;;;;;;;;;;;;;;16.49;47.34;101404.00;5078660;28;1983;-59
2023/05/10 00:53:48;;;;;;;;;;;;;;;17.00;47.39;101401.00;5078900;28;1117;-60
2023/05/10 00:56:14;;;;;;;;;;;;;;;16.76;47.68;101404.03;5060918;28;1085;-60
2023/05/10 00:58:39;;;;;;;;;;;;;;;16.46;47.05;101407.28;5070269;28;1153;-60
2023/05/10 01:01:05;;;;;;;;;;;;;;;17.51;46.86;101394.22;5067052;28;1188;-59
2023/05/10 01:03:31;;;;;;;;;;;;;;;16.69;47.58;101406.16;5060963;28;1197;-59
2023/05/10 01:05:56;;;;;;;;;;;;;;;16.31;47.29;101396.94;5060956;28;1129;-59
2023/05/10 01:08:23;;;;;;;;;;;;;;;16.28;46.32;101394.72;5060154;28;1127;-59
2023/05/10 01:10:49;;;;;;;;;;;;;;;16.21;46.03;101394.09;5060135;28;1898;-60
2023/05/10 01:13:18;;;;;;;;;;;;;;;17.36;46.70;101404.03;5060367;28;1090;-60
2023/05/10 01:15:44;;;;;;;;;;;;;;;16.57;47.68;101402.72;5043708;28;1289;-59
2023/05/10 01:18:10;;;;;;;;;;;;;;;16.28;47.11;101396.63;5060374;28;1150;-59
2023/05/10 01:20:37;;;;;;;;;;;;;;;17.16;47.07;101393.69;5060701;28;1119;-59
2023/05/10 01:23:12;;;;;;;;;;;;;;;16.67;47.72;101400.09;5072634;28;1105;-59
2023/05/10 01:25:56;;;;;;;;;;;;;;;16.89;47.61;101405.56;5078066;28;1059;-59
2023/05/10 01:28:40;;;;;;;;;;;;;;;17.32;47.53;101396.56;5060232;28;1178;-59
2023/05/10 01:31:14;;;;;;;;;;;;;;;16.60;47.87;101411.25;5077788;28;1901;-59
2023/05/10 01:33:59;;;;;;;;;;;;;;;16.38;47.10;101405.84;5062777;28;1411;-59
2023/05/10 01:36:27;;;;;;;;;;;;;;;17.06;48.12;101399.13;5061366;28;1538;-59
2023/05/10 01:38:55;;;;;;;;;;;;;;;16.53;47.99;101399.66;5059905;28;1345;-59
2023/05/10 01:41:38;;;;;;;;;;;;;;;16.43;46.84;101402.31;5077995;28;1113;-59
2023/05/10 01:44:22;;;;;;;;;;;;;;;16.84;48.07;101397.22;5077793;28;1007;-59
2023/05/10 01:46:49;;;;;;;;;;;;;;;16.46;47.27;101390.81;5048672;28;1016;-60
2023/05/10 01:49:24;;;;;;;;;;;;;;;17.54;47.41;101393.69;5044760;28;1104;-59
2023/05/10 01:51:51;;;;;;;;;;;;;;;16.75;48.21;101388.63;5060224;28;1198;-59
2023/05/10 01:54:19;;;;;;;;;;;;;;;16.49;47.38;101387.53;5077665;28;1110;-59
2023/05/10 01:56:44;;;;;;;;;;;;;;;16.30;46.93;101387.06;5077717;28;1143;-59
2023/05/10 01:59:11;;;;;;;;;;;;;;;17.38;47.02;101388.09;5060017;28;1163;-60
2023/05/10 02:01:37;;;;;;;;;;;;;;;16.63;47.64;101396.19;5053331;28;1245;-60
2023/05/10 02:04:03;;;;;;;;;;;;;;;16.45;46.97;101389.13;5059762;28;1154;-60
2023/05/10 02:06:28;;;;;;;;;;;;;;;17.25;47.47;101389.38;5059670;28;1118;-59
2023/05/10 02:08:54;;;;;;;;;;;;;;;16.54;47.99;101389.53;5076789;28;1031;-60
2023/05/10 02:11:21;;;;;;;;;;;;;;;16.57;47.59;101386.25;5046471;28;1914;-59
2023/05/10 02:13:47;;;;;;;;;;;;;;;17.17;47.53;101381.63;5046206;28;1213;-60
2023/05/10 02:16:12;;;;;;;;;;;;;;;16.67;47.53;101386.34;5059280;28;1066;-60
2023/05/10 02:18:38;;;;;;;;;;;;;;;16.37;46.82;101393.19;5072361;28;1504;-59
2023/05/10 02:21:03;;;;;;;;;;;;;;;17.40;47.23;101383.19;5042725;28;1279;-59
2023/05/10 02:23:29;;;;;;;;;;;;;;;16.73;47.70;101390.81;5061379;28;1107;-59
2023/05/10 02:25:55;;;;;;;;;;;;;;;16.54;47.00;101395.84;5051617;28;1082;-59
2023/05/10 02:28:21;;;;;;;;;;;;;;;17.57;47.30;101394.00;5076575;28;1093;-58
2023/05/10 02:30:46;;;;;;;;;;;;;;;16.76;48.10;101401.28;5058676;28;1926;-59
2023/05/10 02:33:12;;;;;;;;;;;;;;;16.42;47.44;101392.41;5058777;28;1150;-58
2023/05/10 02:35:38;;;;;;;;;;;;;;;16.32;46.98;101387.63;5048675;28;860;-59
2023/05/10 02:38:03;;;;;;;;;;;;;;;17.56;47.25;101386.84;5075896;28;1138;-59
2023/05/10 02:40:29;;;;;;;;;;;;;;;16.83;48.20;101389.25;5076851;28;1007;-58
2023/05/10 02:42:56;;;;;;;;;;;;;;;16.53;47.23;101396.91;5076040;28;1034;-60
2023/05/10 02:45:22;;;;;;;;;;;;;;;16.34;46.93;101387.38;5058608;28;1103;-59
2023/05/10 02:47:47;;;;;;;;;;;;;;;16.82;47.53;101393.09;5079843;28;1201;-58
2023/05/10 02:50:13;;;;;;;;;;;;;;;16.75;47.68;101391.38;5056608;28;1918;-58
2023/05/10 02:52:42;;;;;;;;;;;;;;;17.01;47.81;101386.16;5076325;28;1185;-58
2023/05/10 02:55:09;;;;;;;;;;;;;;;18.06;47.06;101395.69;5058635;28;1141;-58
2023/05/10 02:57:34;;;;;;;;;;;;;;;16.95;48.49;101387.19;5059056;28;1190;-58
2023/05/10 03:00:00;;;;;;;;;;;;;;;16.66;47.71;101390.22;5047926;28;997;-57
2023/05/10 03:02:26;;;;;;;;;;;;;;;16.46;46.94;101384.50;5058274;28;1051;-60
2023/05/10 03:04:52;;;;;;;;;;;;;;;16.23;46.64;101386.44;5076538;28;1166;-60
2023/05/10 03:07:20;;;;;;;;;;;;;;;16.75;47.09;101390.56;5058250;28;1162;-59
2023/05/10 03:09:47;;;;;;;;;;;;;;;17.12;47.85;101391.75;5071868;28;1985;-60
2023/05/10 03:12:32;;;;;;;;;;;;;;;16.49;47.79;101397.69;5081373;28;876;-58
2023/05/10 03:15:01;;;;;;;;;;;;;;;17.83;47.23;101391.41;5079245;28;1061;-58
2023/05/10 03:17:30;;;;;;;;;;;;;;;16.81;48.33;101391.44;5029735;28;1316;-58
2023/05/10 03:19:58;;;;;;;;;;;;;;;16.58;47.72;101399.72;5040425;28;1260;-58
2023/05/10 03:22:26;;;;;;;;;;;;;;;16.40;46.81;101398.16;5043085;28;1171;-58
2023/05/10 03:24:53;;;;;;;;;;;;;;;16.33;47.01;101400.28;5060048;28;1117;-58
2023/05/10 03:27:19;;;;;;;;;;;;;;;16.96;47.80;101408.09;5058211;28;1327;-58
2023/05/10 03:29:46;;;;;;;;;;;;;;;16.52;47.37;101405.41;5057682;28;1910;-56
2023/05/10 03:32:12;;;;;;;;;;;;;;;16.35;46.83;101395.34;5038322;28;1097;-55
2023/05/10 03:34:41;;;;;;;;;;;;;;;16.69;47.17;101400.66;5060883;28;1222;-55
2023/05/10 03:37:07;;;;;;;;;;;;;;;16.72;47.94;101399.31;5066694;28;1339;-54
2023/05/10 03:39:33;;;;;;;;;;;;;;;16.46;47.07;101400.97;5053614;28;1147;-55
2023/05/10 03:42:00;;;;;;;;;;;;;;;17.77;46.97;101398.78;5037743;28;1329;-56
2023/05/10 03:44:26;;;;;;;;;;;;;;;16.76;48.18;101405.97;5040417;28;1328;-55
2023/05/10 03:46:51;;;;;;;;;;;;;;;16.56;47.20;101406.56;5042184;28;1285;-54
2023/05/10 03:49:17;;;;;;;;;;;;;;;16.41;46.38;101409.94;5040254;28;1384;-56
2023/05/10 03:51:43;;;;;;;;;;;;;;;17.22;47.28;101402.81;5040140;28;1967;-54
2023/05/10 03:54:08;;;;;;;;;;;;;;;16.57;47.52;101416.47;5037941;28;1323;-56
2023/05/10 03:56:34;;;;;;;;;;;;;;;16.25;47.35;101406.22;5072509;28;1129;-51
2023/05/10 03:58:59;;;;;;;;;;;;;;;16.25;46.20;101411.69;5080512;28;1059;-54
2023/05/10 04:01:25;;;;;;;;;;;;;;;17.33;46.79;101414.72;5079134;28;1082;-52
2023/05/10 04:03:50;;;;;;;;;;;;;;;16.55;47.83;101413.13;5074582;28;983;-56
2023/05/10 04:06:16;;;;;;;;;;;;;;;16.38;47.77;101410.47;5074694;28;1023;-60
2023/05/10 04:08:41;;;;;;;;;;;;;;;17.16;47.50;101412.94;5074907;28;1019;-59
2023/05/10 04:11:07;;;;;;;;;;;;;;;16.52;47.80;101413.66;5077237;28;1979;-57
2023/05/10 04:13:33;;;;;;;;;;;;;;;16.38;47.12;101421.44;5075531;28;1143;-56
2023/05/10 04:15:58;;;;;;;;;;;;;;;17.42;47.18;101422.22;5075253;28;1166;-56
2023/05/10 04:18:24;;;;;;;;;;;;;;;16.75;47.90;101416.09;5075445;28;1070;-58
2023/05/10 04:20:50;;;;;;;;;;;;;;;16.41;47.71;101420.94;5075478;28;1031;-58
2023/05/10 04:23:16;;;;;;;;;;;;;;;16.23;46.99;101411.13;5076454;28;1150;-58
2023/05/10 04:25:42;;;;;;;;;;;;;;;16.48;47.32;101418.00;5075670;28;1148;-58
2023/05/10 04:28:07;;;;;;;;;;;;;;;16.69;48.01;101411.66;5075902;28;992;-59
2023/05/10 04:30:33;;;;;;;;;;;;;;;16.38;47.18;101411.31;5075716;28;1902;-56
2023/05/10 04:32:58;;;;;;;;;;;;;;;17.23;47.24;101397.03;5078262;28;1071;-55
2023/05/10 04:35:24;;;;;;;;;;;;;;;16.77;48.08;101411.19;5084763;28;1193;-59
2023/05/10 04:37:50;;;;;;;;;;;;;;;16.41;47.76;101416.28;5080909;28;1050;-60
2023/05/10 04:40:15;;;;;;;;;;;;;;;16.89;47.95;101415.72;5078885;28;1094;-57
2023/05/10 04:42:41;;;;;;;;;;;;;;;17.05;48.05;101409.25;5079223;28;1099;-57
2023/05/10 04:45:07;;;;;;;;;;;;;;;16.58;48.08;101409.88;5088817;28;979;-56
2023/05/10 04:47:32;;;;;;;;;;;;;;;16.90;48.39;101407.22;5094421;28;1067;-56
2023/05/10 04:49:58;;;;;;;;;;;;;;;16.90;48.17;101406.38;5089529;28;1910;-56
2023/05/10 04:52:24;;;;;;;;;;;;;;;16.50;47.78;101404.84;5085530;28;1138;-56
2023/05/10 04:54:50;;;;;;;;;;;;;;;17.33;47.48;101410.03;5099156;28;1117;-58
2023/05/10 04:57:16;;;;;;;;;;;;;;;16.61;48.06;101401.13;5098742;28;1158;-58
2023/05/10 04:59:42;;;;;;;;;;;;;;;16.38;47.63;101404.97;5098531;28;1073;-57
2023/05/10 05:02:07;;;;;;;;;;;;;;;16.95;46.37;101400.94;5076048;28;1229;-56
2023/05/10 05:04:33;;;;;;;;;;;;;;;17.20;46.23;101394.00;5080828;28;1015;-57
2023/05/10 05:06:59;;;;;;;;;;;;;;;16.77;47.36;101405.69;5098422;28;1021;-55
2023/05/10 05:09:24;;;;;;;;;;;;;;;16.49;48.12;101403.19;5098549;28;1144;-59
2023/05/10 05:11:50;;;;;;;;;;;;;;;16.32;48.67;101401.34;5093719;28;1910;-58
2023/05/10 05:14:15;;;;;;;;;;;;;;;16.17;49.30;101399.28;5077915;28;1035;-58
2023/05/10 05:16:41;;;;;;;;;;;;;;;16.04;49.71;101411.44;5077963;28;1075;-58
2023/05/10 05:19:06;;;;;;;;;;;;;;;16.04;49.95;101411.44;5089436;28;1221;-59
2023/05/10 05:21:32;;;;;;;;;;;;;;;15.87;50.42;101416.16;5094629;28;1121;-44
2023/05/10 05:23:57;;;;;;;;;;;;;;;17.39;46.81;101409.00;5088060;28;1058;-51
2023/05/10 05:26:23;;;;;;;;;;;;;;;16.71;48.21;101417.69;5098138;28;1093;-54
2023/05/10 05:28:51;;;;;;;;;;;;;;;16.30;49.42;101414.50;5088592;28;1057;-51
2023/05/10 05:31:17;;;;;;;;;;;;;;;16.10;50.00;101415.06;5089149;28;1905;-51
2023/05/10 05:33:43;;;;;;;;;;;;;;;16.80;48.57;101414.50;5077788;28;1063;-48
2023/05/10 05:36:08;;;;;;;;;;;;;;;17.17;47.28;101400.03;5079693;28;1203;-51
2023/05/10 05:38:34;;;;;;;;;;;;;;;16.53;49.12;101404.34;5098245;28;1078;-51
2023/05/10 05:41:00;;;;;;;;;;;;;;;16.29;49.78;101412.84;5097979;28;971;-53
2023/05/10 05:43:25;;;;;;;;;;;;;;;16.11;50.33;101413.19;5096320;28;1061;-51
2023/05/10 05:45:52;;;;;;;;;;;;;;;16.91;48.46;101417.13;5094662;28;1121;-52
2023/05/10 05:48:17;;;;;;;;;;;;;;;17.26;47.54;101423.19;5077422;28;1228;-53
2023/05/10 05:50:43;;;;;;;;;;;;;;;16.56;49.48;101406.56;5080426;28;1959;-54
2023/05/10 05:53:08;;;;;;;;;;;;;;;16.23;50.27;101417.44;5097524;28;1041;-55
2023/05/10 05:55:34;;;;;;;;;;;;;;;16.43;50.04;101413.28;5097524;28;1049;-50
2023/05/10 05:57:59;;;;;;;;;;;;;;;17.55;47.05;101406.34;5097785;28;1133;-53
2023/05/10 06:00:25;;;;;;;;;;;;;;;16.74;49.26;101406.19;5083696;28;1126;-57
2023/05/10 06:02:51;;;;;;;;;;;;;;;16.41;50.28;101407.22;5087566;28;1189;-54
2023/05/10 06:05:16;;;;;;;;;;;;;;;16.20;50.63;101414.38;5093009;28;995;-55
2023/05/10 06:07:42;;;;;;;;;;;;;;;17.27;48.30;101416.59;5095695;28;1124;-53
2023/05/10 06:10:08;;;;;;;;;;;;;;;17.08;48.69;101411.50;5076851;28;1988;-54
2023/05/10 06:12:34;;;;;;;;;;;;;;;16.57;49.97;101419.22;5087088;28;1146;-54
2023/05/10 06:14:59;;;;;;;;;;;;;;;16.31;50.56;101413.41;5070048;28;1117;-53
2023/05/10 06:17:25;;;;;;;;;;;;;;;16.07;51.33;101421.91;5092923;28;1082;-53
2023/05/10 06:19:50;;;;;;;;;;;;;;;16.04;51.49;101419.66;5087457;28;1133;-53
2023/05/10 06:22:16;;;;;;;;;;;;;;;17.53;47.92;101414.03;5087497;28;1149;-56
2023/05/10 06:24:41;;;;;;;;;;;;;;;16.71;49.89;101414.97;5076709;28;1019;-55
2023/05/10 06:27:07;;;;;;;;;;;;;;;16.33;50.90;101418.66;5076625;28;1058;-53
2023/05/10 06:29:32;;;;;;;;;;;;;;;16.30;50.92;101408.19;5076019;28;1066;-55
2023/05/10 06:31:58;;;;;;;;;;;;;;;17.65;47.63;101408.34;5090229;28;1902;-53
2023/05/10 06:34:24;;;;;;;;;;;;;;;16.74;49.84;101417.19;5076632;28;1059;-55
2023/05/10 06:36:49;;;;;;;;;;;;;;;16.37;50.98;101415.16;5091257;28;1194;-55
2023/05/10 06:39:15;;;;;;;;;;;;;;;16.31;51.15;101405.16;5096818;28;1106;-55
2023/05/10 06:41:41;;;;;;;;;;;;;;;17.67;47.61;101418.00;5094527;28;1065;-54
2023/05/10 06:44:07;;;;;;;;;;;;;;;16.87;49.45;101417.84;5076805;28;1110;-54
2023/05/10 06:46:32;;;;;;;;;;;;;;;16.39;50.69;101415.69;5075501;28;1035;-54
2023/05/10 06:48:58;;;;;;;;;;;;;;;16.55;50.81;101424.09;5085171;28;985;-55
2023/05/10 06:51:23;;;;;;;;;;;;;;;17.56;48.14;101413.53;5082835;28;1914;-54
2023/05/10 06:53:49;;;;;;;;;;;;;;;16.79;49.93;101416.41;5093730;28;1062;-55
2023/05/10 06:56:14;;;;;;;;;;;;;;;16.43;50.76;101419.59;5062339;28;1320;-55
2023/05/10 06:58:40;;;;;;;;;;;;;;;16.51;50.68;101428.47;5071859;28;1291;-53
2023/05/10 07:01:05;;;;;;;;;;;;;;;17.55;47.88;101423.69;5092102;28;1007;-56
2023/05/10 07:03:31;;;;;;;;;;;;;;;16.68;50.31;101426.47;5077342;28;1417;-51
2023/05/10 07:06:03;;;;;;;;;;;;;;;16.49;50.78;101431.47;5072212;28;1222;-55
2023/05/10 07:08:30;;;;;;;;;;;;;;;16.26;51.41;101424.34;5076074;28;1059;-55
2023/05/10 07:11:01;;;;;;;;;;;;;;;16.83;50.17;101428.56;5089741;28;1967;-55
2023/05/10 07:13:27;;;;;;;;;;;;;;;17.23;49.05;101426.47;5083725;28;1127;-55
2023/05/10 07:15:52;;;;;;;;;;;;;;;16.61;50.69;101425.84;5086493;28;1031;-55
2023/05/10 07:18:18;;;;;;;;;;;;;;;16.32;51.48;101423.31;5095750;28;1062;-56
2023/05/10 07:20:43;;;;;;;;;;;;;;;16.42;51.45;101439.91;5095927;28;1054;-54
2023/05/10 07:23:09;;;;;;;;;;;;;;;17.59;48.28;101435.00;5075960;28;1178;-56
2023/05/10 07:25:34;;;;;;;;;;;;;;;16.78;50.33;101439.47;5078007;28;1063;-54
2023/05/10 07:28:00;;;;;;;;;;;;;;;16.40;51.48;101431.09;5083408;28;1406;-55
2023/05/10 07:30:25;;;;;;;;;;;;;;;16.20;51.75;101433.56;5096172;28;1910;-55
2023/05/10 07:32:51;;;;;;;;;;;;;;;16.51;51.42;101433.94;5085457;28;1575;-59
2023/05/10 07:35:16;;;;;;;;;;;;;;;17.72;48.24;101437.25;5089755;28;1180;-56
2023/05/10 07:37:42;;;;;;;;;;;;;;;16.79;50.62;101437.53;5086425;28;848;-56
2023/05/10 07:40:08;;;;;;;;;;;;;;;16.43;51.34;101435.25;5079356;28;1447;-57
2023/05/10 07:42:33;;;;;;;;;;;;;;;16.98;50.22;101438.06;5078004;28;1199;-56
2023/05/10 07:44:59;;;;;;;;;;;;;;;17.37;49.23;101433.16;5096511;28;1070;-57
2023/05/10 07:47:24;;;;;;;;;;;;;;;16.75;50.87;101443.56;5095384;28;1205;-56
2023/05/10 07:49:50;;;;;;;;;;;;;;;16.47;51.59;101446.56;5095240;28;1967;-57
2023/05/10 07:52:16;;;;;;;;;;;;;;;16.25;51.85;101445.44;5091983;28;1007;-55
2023/05/10 07:54:41;;;;;;;;;;;;;;;16.74;51.10;101439.16;5086693;28;1111;-57
2023/05/10 07:57:07;;;;;;;;;;;;;;;17.45;49.05;101435.44;5075108;28;1073;-59
2023/05/10 07:59:33;;;;;;;;;;;;;;;16.69;51.18;101438.28;5072319;28;1249;-58
2023/05/10 08:01:58;;;;;;;;;;;;;;;16.35;51.95;101442.00;5057010;28;944;-56
2023/05/10 08:04:24;;;;;;;;;;;;;;;17.68;48.84;101438.06;5068746;28;1117;-54
2023/05/10 08:06:50;;;;;;;;;;;;;;;16.85;50.65;101436.53;5068715;28;1190;-56
2023/05/10 08:09:15;;;;;;;;;;;;;;;16.53;51.50;101440.84;5078881;28;1132;-56
2023/05/10 08:11:41;;;;;;;;;;;;;;;16.25;52.23;101447.38;5076518;28;1906;-56
2023/05/10 08:14:07;;;;;;;;;;;;;;;16.52;51.82;101449.34;5085091;28;1016;-55
2023/05/10 08:16:32;;;;;;;;;;;;;;;17.66;48.46;101452.09;5092967;28;1034;-56
2023/05/10 08:18:58;;;;;;;;;;;;;;;16.81;50.79;101452.69;5099471;28;1104;-54
2023/05/10 08:21:23;;;;;;;;;;;;;;;16.46;51.73;101453.94;5091500;28;1053;-57
2023/05/10 08:23:49;;;;;;;;;;;;;;;16.23;52.23;101455.03;5078512;28;1117;-56
2023/05/10 08:26:15;;;;;;;;;;;;;;;16.39;52.06;101462.38;5071626;28;950;-53
2023/05/10 08:28:40;;;;;;;;;;;;;;;17.61;48.75;101454.78;5063228;28;1218;-56
2023/05/10 08:31:06;;;;;;;;;;;;;;;16.70;51.05;101457.22;5074257;28;1918;-55
2023/05/10 08:33:31;;;;;;;;;;;;;;;16.40;51.69;101461.28;5070905;28;1309;-53
2023/05/10 08:35:57;;;;;;;;;;;;;;;16.19;52.18;101451.16;5072043;28;1276;-52
2023/05/10 08:38:22;;;;;;;;;;;;;;;17.09;50.29;101451.63;5060652;28;928;-53
2023/05/10 08:40:48;;;;;;;;;;;;;;;17.33;49.42;101459.53;5078752;28;1313;-53
2023/05/10 08:43:17;;;;;;;;;;;;;;;16.59;51.35;101453.56;5078783;28;1257;-53
2023/05/10 08:45:45;;;;;;;;;;;;;;;16.43;52.06;101455.28;5079449;28;1249;-53
2023/05/10 08:48:10;;;;;;;;;;;;;;;17.68;48.54;101460.88;5078683;28;1265;-54
2023/05/10 08:50:40;;;;;;;;;;;;;;;16.85;50.76;101461.25;5085084;28;1972;-53
2023/05/10 08:53:06;;;;;;;;;;;;;;;16.48;51.79;101459.16;5078807;28;1300;-51
2023/05/10 08:55:33;;;;;;;;;;;;;;;16.28;52.40;101463.31;5060886;28;1304;-54
2023/05/10 08:57:59;;;;;;;;;;;;;;;17.54;49.38;101462.44;5060989;28;1206;-53
2023/05/10 09:00:25;;;;;;;;;;;;;;;17.10;50.33;101467.00;5060792;28;1054;-52
2023/05/10 09:02:50;;;;;;;;;;;;;;;16.57;51.42;101468.63;5060350;28;1206;-53
2023/05/10 09:05:17;;;;;;;;;;;;;;;16.31;52.40;101459.25;5079822;28;1106;-53
2023/05/10 09:07:43;;;;;;;;;;;;;;;17.57;49.28;101453.66;5066528;28;1198;-52
2023/05/10 09:10:08;;;;;;;;;;;;;;;16.81;50.90;101460.91;5058635;28;1918;-53
2023/05/10 09:12:34;;;;;;;;;;;;;;;16.44;51.93;101453.38;5058079;28;1134;-53
2023/05/10 09:15:00;;;;;;;;;;;;;;;16.31;52.46;101460.06;5068673;28;1060;-51
2023/05/10 09:17:25;;;;;;;;;;;;;;;17.57;49.07;101448.16;5053414;28;1237;-53
2023/05/10 09:19:57;;;;;;;;;;;;;;;16.73;51.02;101445.75;5058944;28;1123;-56
2023/05/10 09:22:22;;;;;;;;;;;;;;;16.47;52.01;101449.31;5076634;28;1103;-55
2023/05/10 09:24:49;;;;;;;;;;;;;;;16.28;52.28;101449.59;5077948;28;1094;-56
2023/05/10 09:27:14;;;;;;;;;;;;;;;16.80;51.49;101455.69;5086178;28;876;-58
2023/05/10 09:29:41;;;;;;;;;;;;;;;17.49;49.32;101445.91;5077397;28;1077;-53
2023/05/10 09:32:06;;;;;;;;;;;;;;;16.73;51.31;101451.25;5077894;28;2008;-56
2023/05/10 09:34:32;;;;;;;;;;;;;;;16.40;52.27;101460.47;5059513;28;1110;-54
2023/05/10 09:37:00;;;;;;;;;;;;;;;16.22;52.76;101461.59;5087685;28;1098;-55
2023/05/10 09:39:32;;;;;;;;;;;;;;;17.63;49.27;101452.63;5083220;28;912;-52
2023/05/10 09:41:59;;;;;;;;;;;;;;;16.96;50.88;101457.53;5096916;28;1041;-52
2023/05/10 09:44:25;;;;;;;;;;;;;;;16.51;51.99;101451.25;5097559;28;1122;-55
2023/05/10 09:46:52;;;;;;;;;;;;;;;16.31;52.59;101459.25;5086873;28;1295;-53
2023/05/10 09:49:18;;;;;;;;;;;;;;;16.29;52.57;101467.72;5095162;28;1181;-55
2023/05/10 09:51:44;;;;;;;;;;;;;;;17.62;49.35;101464.72;5097671;28;1977;-54
2023/05/10 09:54:10;;;;;;;;;;;;;;;16.83;51.26;101456.03;5084374;28;1177;-51
2023/05/10 09:56:37;;;;;;;;;;;;;;;16.46;52.16;101466.84;5083661;28;1269;-52
2023/05/10 09:59:03;;;;;;;;;;;;;;;16.26;52.86;101457.28;5097384;28;1124;-53
2023/05/10 10:01:28;;;;;;;;;;;;;;;16.80;51.81;101461.19;5082307;28;1122;-55
2023/05/10 10:03:54;;;;;;;;;;;;;;;17.32;49.88;101452.38;5059587;28;1050;-54
2023/05/10 10:06:19;;;;;;;;;;;;;;;16.69;51.67;101454.75;5075948;28;1242;-55
2023/05/10 10:08:45;;;;;;;;;;;;;;;16.38;52.54;101457.97;5096855;28;1129;-51
2023/05/10 10:11:11;;;;;;;;;;;;;;;17.66;49.33;101457.59;5070946;28;1918;-55
2023/05/10 10:13:37;;;;;;;;;;;;;;;16.82;51.31;101462.59;5070195;28;1122;-54
2023/05/10 10:16:02;;;;;;;;;;;;;;;16.49;52.31;101460.84;5073081;28;1250;-56
2023/05/10 10:18:30;;;;;;;;;;;;;;;16.22;52.53;101456.94;5097130;28;1105;-57
2023/05/10 10:20:56;;;;;;;;;;;;;;;17.15;50.67;101468.16;5085753;28;1210;-52
2023/05/10 10:23:22;;;;;;;;;;;;;;;17.13;50.43;101464.84;5094857;28;1209;-55
2023/05/10 10:25:48;;;;;;;;;;;;;;;16.60;52.08;101468.94;5094237;28;1058;-59
2023/05/10 10:28:17;;;;;;;;;;;;;;;16.39;52.59;101473.34;5064362;28;1020;-54
2023/05/10 10:30:43;;;;;;;;;;;;;;;16.25;52.95;101474.81;5084237;28;1918;-56
2023/05/10 10:33:24;;;;;;;;;;;;;;;17.36;50.33;101463.66;5072992;28;999;-57
2023/05/10 10:35:50;;;;;;;;;;;;;;;17.10;50.71;101463.44;5072867;28;1095;-58
2023/05/10 10:38:17;;;;;;;;;;;;;;;16.56;52.36;101462.31;5088143;28;1107;-54
2023/05/10 10:40:42;;;;;;;;;;;;;;;16.37;52.64;101464.56;5091757;28;1126;-56
2023/05/10 10:43:21;;;;;;;;;;;;;;;16.37;53.04;101461.81;5088149;28;1114;-53
2023/05/10 10:46:17;;;;;;;;;;;;;;;17.65;49.58;101464.16;5089667;28;1244;-57
2023/05/10 10:48:51;;;;;;;;;;;;;;;16.73;51.67;101473.22;5071155;28;1052;-54
2023/05/10 10:51:16;;;;;;;;;;;;;;;16.46;52.57;101464.91;5065255;28;1965;-54
2023/05/10 10:53:42;;;;;;;;;;;;;;;17.31;50.41;101471.88;5070686;28;1101;-53
2023/05/10 10:56:13;;;;;;;;;;;;;;;17.10;50.70;101478.00;5076057;28;1070;-52
2023/05/10 10:58:39;;;;;;;;;;;;;;;16.54;52.08;101475.44;5075796;28;1169;-52
2023/05/10 11:01:10;;;;;;;;;;;;;;;16.37;52.70;101477.44;5076094;28;1194;-52
2023/05/10 11:03:36;;;;;;;;;;;;;;;16.28;53.02;101479.78;5084923;28;1209;-53
2023/05/10 11:06:02;;;;;;;;;;;;;;;17.69;49.28;101473.56;5066241;28;1159;-51
2023/05/10 11:08:28;;;;;;;;;;;;;;;16.80;51.77;101483.16;5076192;28;1146;-52
2023/05/10 11:11:03;;;;;;;;;;;;;;;16.45;52.48;101481.66;5076243;28;1913;-50
2023/05/10 11:13:37;;;;;;;;;;;;;;;16.23;53.15;101472.31;5075520;28;876;-52
2023/05/10 11:16:12;;;;;;;;;;;;;;;17.37;50.28;101471.66;5075497;28;936;-51
2023/05/10 11:18:38;;;;;;;;;;;;;;;17.12;50.87;101474.19;5063141;28;1119;-51
2023/05/10 11:21:05;;;;;;;;;;;;;;;16.54;52.30;101464.47;5076079;28;1151;-50
2023/05/10 11:23:31;;;;;;;;;;;;;;;16.31;53.04;101471.03;5075951;28;1143;-53
2023/05/10 11:25:56;;;;;;;;;;;;;;;16.63;52.32;101464.03;5088454;28;1008;-55
2023/05/10 11:28:22;;;;;;;;;;;;;;;17.38;50.09;101462.31;5096574;28;1042;-52
2023/05/10 11:30:47;;;;;;;;;;;;;;;16.64;52.00;101463.75;5096011;28;1981;-55
2023/05/10 11:33:16;;;;;;;;;;;;;;;16.40;52.62;101480.50;5090182;28;1153;-54
2023/05/10 11:35:42;;;;;;;;;;;;;;;17.66;49.34;101465.84;5075292;28;1066;-57
2023/05/10 11:38:08;;;;;;;;;;;;;;;16.81;51.55;101473.84;5057736;28;1105;-56
2023/05/10 11:40:37;;;;;;;;;;;;;;;16.52;52.38;101465.81;5089152;28;1162;-56
2023/05/10 11:43:02;;;;;;;;;;;;;;;16.29;52.77;101472.41;5099611;28;1102;-56
2023/05/10 11:45:29;;;;;;;;;;;;;;;17.17;51.13;101471.50;5085833;28;1201;-55
2023/05/10 11:47:55;;;;;;;;;;;;;;;17.02;51.18;101456.50;5059212;28;1346;-55
2023/05/10 11:50:21;;;;;;;;;;;;;;;16.57;52.35;101460.38;5093207;28;1910;-58
2023/05/10 11:52:50;;;;;;;;;;;;;;;16.33;52.78;101466.13;5079885;28;1032;-57
2023/05/10 11:55:16;;;;;;;;;;;;;;;16.23;53.00;101472.31;5073730;28;1067;-53
2023/05/10 11:57:43;;;;;;;;;;;;;;;17.64;49.64;101465.25;5086106;28;1114;-57
2023/05/10 12:00:09;;;;;;;;;;;;;;;16.79;51.82;101467.75;5079576;28;1113;-58
2023/05/10 12:02:35;;;;;;;;;;;;;;;16.46;52.40;101469.59;5078763;28;1035;-57
2023/05/10 12:05:01;;;;;;;;;;;;;;;16.20;53.05;101456.38;5066547;28;1076;-57
2023/05/10 12:07:26;;;;;;;;;;;;;;;16.73;52.25;101464.97;5078692;28;1035;-53
2023/05/10 12:10:08;;;;;;;;;;;;;;;17.45;49.76;101457.44;5069129;28;1890;-53
2023/05/10 12:12:37;;;;;;;;;;;;;;;16.64;52.04;101461.03;5086029;28;1173;-53
2023/05/10 12:15:03;;;;;;;;;;;;;;;16.36;52.75;101468.38;5099174;28;1074;-54
2023/05/10 12:17:29;;;;;;;;;;;;;;;16.39;52.78;101469.78;5084693;28;1130;-56
2023/05/10 12:19:58;;;;;;;;;;;;;;;17.73;49.32;101447.19;5085839;28;1225;-56
2023/05/10 12:22:24;;;;;;;;;;;;;;;16.84;51.46;101452.16;5088380;28;1101;-59
2023/05/10 12:24:50;;;;;;;;;;;;;;;16.41;52.82;101449.22;5093115;28;1123;-56
2023/05/10 12:27:15;;;;;;;;;;;;;;;16.24;53.02;101453.94;5083471;28;977;-57
2023/05/10 12:29:44;;;;;;;;;;;;;;;17.32;50.68;101446.88;5095742;28;1098;-55
2023/05/10 12:32:09;;;;;;;;;;;;;;;17.09;51.10;101437.06;5090378;28;1986;-55
2023/05/10 12:34:35;;;;;;;;;;;;;;;16.61;52.17;101436.81;5072506;28;1133;-55
2023/05/10 12:37:05;;;;;;;;;;;;;;;16.33;53.01;101435.94;5087774;28;1165;-55
2023/05/10 12:39:38;;;;;;;;;;;;;;;17.53;49.99;101430.53;5078637;28;1094;-53
2023/05/10 12:42:04;;;;;;;;;;;;;;;17.02;51.36;101437.25;5091759;28;1186;-54
2023/05/10 12:44:29;;;;;;;;;;;;;;;16.56;52.23;101429.38;5085677;28;1201;-52